This is the latest recevied weather packets stored in our database for station/object SP2ARK-10. If no packets are shown the sender has not sent any weather packets the latest 10 day(s).
| Time | Temp. | Humidity | Pressure | Rain* | Wind** | Luminosity | Snow |
|---|---|---|---|---|---|---|---|
| 1777583821 | 13.33° C | 66% | 1032.4 hPa | - | - | - | - |
| 1777579317 | 13.89° C | 64% | 1032.5 hPa | - | - | - | - |
| 1777577517 | 14.44° C | 64% | 1032.7 hPa | - | - | - | - |
| 1777576617 | 14.44° C | 62% | 1032.6 hPa | - | - | - | - |
| 1777573915 | 14.44° C | 61% | 1032.7 hPa | - | - | - | - |
| 1777573014 | 14.44° C | 61% | 1032.7 hPa | - | - | - | - |
| 1777569410 | 15° C | 59% | 1032.6 hPa | - | - | - | - |
| 1777568509 | 15° C | 59% | 1032.6 hPa | - | - | - | - |
| 1777567608 | 15° C | 58% | 1032.6 hPa | - | - | - | - |
| 1777565807 | 15.56° C | 58% | 1032.8 hPa | - | - | - | - |
| 1777563105 | 15.56° C | 57% | 1032.9 hPa | - | - | - | - |
| 1777555899 | 17.22° C | 53% | 1033.9 hPa | - | - | - | - |
| 1777554998 | 16.67° C | 54% | 1033.9 hPa | - | - | - | - |
| 1777554098 | 15° C | 53% | 1034.3 hPa | - | - | - | - |
| 1777551396 | 14.44° C | 55% | 1035 hPa | - | - | - | - |
| 1777548694 | 13.89° C | 54% | 1035.4 hPa | - | - | - | - |
| 1777547793 | 12.22° C | 55% | 1035.7 hPa | - | - | - | - |
| 1777545091 | 12.78° C | 55% | 1035.8 hPa | - | - | - | - |
| 1777544191 | 12.22° C | 55% | 1035.9 hPa | - | - | - | - |
| 1777543290 | 11.11° C | 55% | 1036.1 hPa | - | - | - | - |
| 1777542389 | 11.11° C | 56% | 1036.1 hPa | - | - | - | - |
| 1777541492 | 10° C | 57% | 1036.2 hPa | - | - | - | - |
| 1777540588 | 9.44° C | 57% | 1036.4 hPa | - | - | - | - |
| 1777538787 | 8.33° C | 58% | 1036.7 hPa | - | - | - | - |
| 1777537886 | 8.33° C | 58% | 1036.8 hPa | - | - | - | - |
* Rain since midnight (hover to see other rain measurements)
** Current wind speed in m/s (hover to see current wind gust speed)